sensor_id;sensor_type;location;lat;lon;timestamp;pressure;altitude;pressure_sealevel;temperature;humidity
71559;BME280;59382;43.852;25.952;2023-12-14T00:01:34;100135.53;;;8.74;67.04
71559;BME280;59382;43.852;25.952;2023-12-14T00:04:00;100154.97;;;8.82;67.33
71559;BME280;59382;43.852;25.952;2023-12-14T00:06:25;100140.91;;;8.74;67.13
71559;BME280;59382;43.852;25.952;2023-12-14T00:08:51;100138.28;;;8.67;67.24
71559;BME280;59382;43.852;25.952;2023-12-14T00:11:16;100134.53;;;8.68;67.58
71559;BME280;59382;43.852;25.952;2023-12-14T00:13:44;100146.72;;;8.77;67.38
71559;BME280;59382;43.852;25.952;2023-12-14T00:16:10;100153.31;;;8.81;67.14
71559;BME280;59382;43.852;25.952;2023-12-14T00:18:36;100137.00;;;8.76;67.18
71559;BME280;59382;43.852;25.952;2023-12-14T00:21:02;100132.84;;;8.74;67.33
71559;BME280;59382;43.852;25.952;2023-12-14T00:23:28;100150.03;;;8.79;67.34
71559;BME280;59382;43.852;25.952;2023-12-14T00:25:54;100146.50;;;8.72;67.55
71559;BME280;59382;43.852;25.952;2023-12-14T00:28:19;100159.31;;;8.83;67.56
71559;BME280;59382;43.852;25.952;2023-12-14T00:30:45;100168.16;;;8.90;67.36
71559;BME280;59382;43.852;25.952;2023-12-14T00:33:10;100154.28;;;8.93;67.36
71559;BME280;59382;43.852;25.952;2023-12-14T00:35:36;100161.94;;;8.96;67.42
71559;BME280;59382;43.852;25.952;2023-12-14T00:38:01;100161.50;;;8.99;66.97
71559;BME280;59382;43.852;25.952;2023-12-14T00:40:27;100142.47;;;8.94;66.86
71559;BME280;59382;43.852;25.952;2023-12-14T00:42:52;100139.97;;;8.99;66.70
71559;BME280;59382;43.852;25.952;2023-12-14T00:45:18;100126.53;;;8.99;66.79
71559;BME280;59382;43.852;25.952;2023-12-14T00:47:43;100139.53;;;9.09;66.80
71559;BME280;59382;43.852;25.952;2023-12-14T00:50:09;100144.69;;;9.10;66.83
71559;BME280;59382;43.852;25.952;2023-12-14T00:52:34;100144.84;;;9.15;67.18
71559;BME280;59382;43.852;25.952;2023-12-14T00:55:00;100141.16;;;9.16;66.81
71559;BME280;59382;43.852;25.952;2023-12-14T00:57:25;100141.94;;;9.17;67.07
71559;BME280;59382;43.852;25.952;2023-12-14T00:59:51;100141.72;;;9.18;66.96
71559;BME280;59382;43.852;25.952;2023-12-14T01:02:16;100141.72;;;9.18;66.87
71559;BME280;59382;43.852;25.952;2023-12-14T01:04:42;100146.91;;;9.20;66.79
71559;BME280;59382;43.852;25.952;2023-12-14T01:07:08;100147.72;;;9.20;66.61
71559;BME280;59382;43.852;25.952;2023-12-14T01:09:36;100137.41;;;9.17;66.61
71559;BME280;59382;43.852;25.952;2023-12-14T01:12:01;100106.63;;;9.00;66.83
71559;BME280;59382;43.852;25.952;2023-12-14T01:14:27;100117.78;;;9.10;66.42
71559;BME280;59382;43.852;25.952;2023-12-14T01:16:55;100100.59;;;9.11;66.73
71559;BME280;59382;43.852;25.952;2023-12-14T01:19:21;100103.28;;;9.11;66.59
71559;BME280;59382;43.852;25.952;2023-12-14T01:21:46;100097.88;;;9.11;66.81
71559;BME280;59382;43.852;25.952;2023-12-14T01:24:12;100117.50;;;9.18;66.56
71559;BME280;59382;43.852;25.952;2023-12-14T01:26:37;100116.50;;;9.19;66.61
71559;BME280;59382;43.852;25.952;2023-12-14T01:29:02;100116.50;;;9.19;66.58
71559;BME280;59382;43.852;25.952;2023-12-14T01:31:28;100108.84;;;9.16;66.23
71559;BME280;59382;43.852;25.952;2023-12-14T01:33:54;100099.75;;;9.11;66.21
71559;BME280;59382;43.852;25.952;2023-12-14T01:36:24;100105.09;;;9.17;66.56
71559;BME280;59382;43.852;25.952;2023-12-14T01:38:50;100084.03;;;9.08;66.57
71559;BME280;59382;43.852;25.952;2023-12-14T01:41:16;100081.56;;;9.06;66.62
71559;BME280;59382;43.852;25.952;2023-12-14T01:43:42;100098.94;;;9.10;66.42
71559;BME280;59382;43.852;25.952;2023-12-14T01:46:08;100083.03;;;9.02;66.40
71559;BME280;59382;43.852;25.952;2023-12-14T01:48:33;100111.31;;;9.18;66.64
71559;BME280;59382;43.852;25.952;2023-12-14T01:50:59;100113.78;;;9.19;66.16
71559;BME280;59382;43.852;25.952;2023-12-14T01:53:27;100104.25;;;9.17;66.39
71559;BME280;59382;43.852;25.952;2023-12-14T01:55:53;100114.22;;;9.16;66.29
71559;BME280;59382;43.852;25.952;2023-12-14T01:58:18;100107.16;;;9.15;66.54
71559;BME280;59382;43.852;25.952;2023-12-14T02:03:13;100110.03;;;9.20;66.53
71559;BME280;59382;43.852;25.952;2023-12-14T02:05:38;100110.03;;;9.20;66.30
71559;BME280;59382;43.852;25.952;2023-12-14T02:08:04;100093.56;;;9.10;66.27
71559;BME280;59382;43.852;25.952;2023-12-14T02:10:30;100091.88;;;9.09;66.31
71559;BME280;59382;43.852;25.952;2023-12-14T02:12:55;100106.75;;;9.18;66.34
71559;BME280;59382;43.852;25.952;2023-12-14T02:15:20;100110.03;;;9.20;66.35
71559;BME280;59382;43.852;25.952;2023-12-14T02:17:46;100096.03;;;9.12;66.25
71559;BME280;59382;43.852;25.952;2023-12-14T02:20:11;100098.50;;;9.13;66.13
71559;BME280;59382;43.852;25.952;2023-12-14T02:22:56;100103.84;;;9.20;66.31
71559;BME280;59382;43.852;25.952;2023-12-14T02:25:22;100095.53;;;9.21;66.00
71559;BME280;59382;43.852;25.952;2023-12-14T02:27:49;100083.56;;;9.17;66.01
71559;BME280;59382;43.852;25.952;2023-12-14T02:30:16;100073.66;;;9.11;66.27
71559;BME280;59382;43.852;25.952;2023-12-14T02:32:41;100079.25;;;9.10;65.82
71559;BME280;59382;43.852;25.952;2023-12-14T02:35:07;100091.03;;;9.15;66.33
71559;BME280;59382;43.852;25.952;2023-12-14T02:37:36;100088.13;;;9.17;65.90
71559;BME280;59382;43.852;25.952;2023-12-14T02:40:10;100086.06;;;9.12;65.79
71559;BME280;59382;43.852;25.952;2023-12-14T02:42:39;100075.38;;;9.06;66.00
71559;BME280;59382;43.852;25.952;2023-12-14T02:45:06;100076.59;;;9.03;66.18
71559;BME280;59382;43.852;25.952;2023-12-14T02:47:32;100086.13;;;9.06;66.08
71559;BME280;59382;43.852;25.952;2023-12-14T02:49:57;100092.50;;;9.11;66.04
71559;BME280;59382;43.852;25.952;2023-12-14T02:52:23;100080.69;;;9.12;66.19
71559;BME280;59382;43.852;25.952;2023-12-14T02:54:48;100078.28;;;9.04;66.17
71559;BME280;59382;43.852;25.952;2023-12-14T02:57:14;100080.75;;;9.06;66.09
71559;BME280;59382;43.852;25.952;2023-12-14T02:59:39;100096.03;;;9.12;66.09
71559;BME280;59382;43.852;25.952;2023-12-14T03:02:08;100088.34;;;9.15;66.24
71559;BME280;59382;43.852;25.952;2023-12-14T03:04:34;100035.72;;;8.88;66.05
71559;BME280;59382;43.852;25.952;2023-12-14T03:07:00;100086.47;;;9.16;66.07
71559;BME280;59382;43.852;25.952;2023-12-14T03:09:30;100089.38;;;9.14;65.96
71559;BME280;59382;43.852;25.952;2023-12-14T03:11:56;100066.47;;;9.05;65.91
71559;BME280;59382;43.852;25.952;2023-12-14T03:14:22;100080.25;;;9.15;66.17
71559;BME280;59382;43.852;25.952;2023-12-14T03:16:47;100094.94;;;9.19;66.14
71559;BME280;59382;43.852;25.952;2023-12-14T03:19:17;100093.91;;;9.20;65.94
71559;BME280;59382;43.852;25.952;2023-12-14T03:21:42;100096.59;;;9.20;66.06
71559;BME280;59382;43.852;25.952;2023-12-14T03:24:08;100095.31;;;9.23;66.02
71559;BME280;59382;43.852;25.952;2023-12-14T03:26:35;100088.09;;;9.23;65.82
71559;BME280;59382;43.852;25.952;2023-12-14T03:29:00;100095.72;;;9.26;66.08
71559;BME280;59382;43.852;25.952;2023-12-14T03:31:29;100095.28;;;9.29;66.22
71559;BME280;59382;43.852;25.952;2023-12-14T03:33:54;100110.38;;;9.30;65.66
71559;BME280;59382;43.852;25.952;2023-12-14T03:36:19;100088.50;;;9.20;65.70
71559;BME280;59382;43.852;25.952;2023-12-14T03:38:47;100090.56;;;9.25;65.99
71559;BME280;59382;43.852;25.952;2023-12-14T03:41:13;100092.19;;;9.26;65.56
71559;BME280;59382;43.852;25.952;2023-12-14T03:43:38;100090.16;;;9.21;65.84
71559;BME280;59382;43.852;25.952;2023-12-14T03:46:04;100063.72;;;9.12;65.93
71559;BME280;59382;43.852;25.952;2023-12-14T03:48:32;100085.19;;;9.18;65.64
71559;BME280;59382;43.852;25.952;2023-12-14T03:50:57;100056.69;;;9.11;66.19
71559;BME280;59382;43.852;25.952;2023-12-14T03:53:22;100084.19;;;9.19;65.73
71559;BME280;59382;43.852;25.952;2023-12-14T03:55:51;100093.91;;;9.20;65.80
71559;BME280;59382;43.852;25.952;2023-12-14T03:58:16;100064.97;;;9.09;65.66
71559;BME280;59382;43.852;25.952;2023-12-14T04:00:42;100081.19;;;9.03;65.47
71559;BME280;59382;43.852;25.952;2023-12-14T04:03:09;100075.94;;;9.14;65.89
71559;BME280;59382;43.852;25.952;2023-12-14T04:05:35;100087.75;;;9.13;65.90
71559;BME280;59382;43.852;25.952;2023-12-14T04:08:00;100059.66;;;9.03;65.92
71559;BME280;59382;43.852;25.952;2023-12-14T04:10:30;100071.59;;;9.13;65.66
71559;BME280;59382;43.852;25.952;2023-12-14T04:12:56;100067.44;;;9.11;65.84
71559;BME280;59382;43.852;25.952;2023-12-14T04:15:21;100043.66;;;9.08;65.95
71559;BME280;59382;43.852;25.952;2023-12-14T04:17:47;100065.78;;;9.16;65.92
71559;BME280;59382;43.852;25.952;2023-12-14T04:20:13;100063.09;;;9.16;65.67
71559;BME280;59382;43.852;25.952;2023-12-14T04:22:42;100065.78;;;9.16;65.78
71559;BME280;59382;43.852;25.952;2023-12-14T04:25:08;100055.03;;;9.10;65.85
71559;BME280;59382;43.852;25.952;2023-12-14T04:27:34;100064.09;;;9.15;65.75
71559;BME280;59382;43.852;25.952;2023-12-14T04:29:59;100070.09;;;9.17;65.75
71559;BME280;59382;43.852;25.952;2023-12-14T04:32:25;100073.41;;;9.19;66.07
71559;BME280;59382;43.852;25.952;2023-12-14T04:34:51;100057.53;;;9.11;65.61
71559;BME280;59382;43.852;25.952;2023-12-14T04:37:16;100064.47;;;9.25;65.76
71559;BME280;59382;43.852;25.952;2023-12-14T04:39:42;100054.13;;;9.22;65.73
71559;BME280;59382;43.852;25.952;2023-12-14T04:42:10;100066.94;;;9.27;65.92
71559;BME280;59382;43.852;25.952;2023-12-14T04:44:36;100052.22;;;9.29;65.89
71559;BME280;59382;43.852;25.952;2023-12-14T04:47:01;100036.94;;;9.23;65.91
71559;BME280;59382;43.852;25.952;2023-12-14T04:49:30;100039.22;;;9.20;65.42
71559;BME280;59382;43.852;25.952;2023-12-14T04:51:55;100054.91;;;9.29;65.65
71559;BME280;59382;43.852;25.952;2023-12-14T04:54:21;100028.84;;;9.23;65.59
71559;BME280;59382;43.852;25.952;2023-12-14T04:56:46;100046.22;;;9.27;66.01
71559;BME280;59382;43.852;25.952;2023-12-14T04:59:12;100032.38;;;9.24;65.57
71559;BME280;59382;43.852;25.952;2023-12-14T05:01:40;100031.94;;;9.27;65.64
71559;BME280;59382;43.852;25.952;2023-12-14T05:04:06;100036.69;;;9.31;66.05
71559;BME280;59382;43.852;25.952;2023-12-14T05:06:31;100029.19;;;9.33;65.58
71559;BME280;59382;43.852;25.952;2023-12-14T05:08:58;100015.56;;;9.28;65.75
71559;BME280;59382;43.852;25.952;2023-12-14T05:11:27;100037.25;;;9.33;66.08
71559;BME280;59382;43.852;25.952;2023-12-14T05:13:52;100034.13;;;9.36;65.76
71559;BME280;59382;43.852;25.952;2023-12-14T05:16:17;100039.94;;;9.33;65.89
71559;BME280;59382;43.852;25.952;2023-12-14T05:18:43;100029.63;;;9.30;65.73
71559;BME280;59382;43.852;25.952;2023-12-14T05:21:08;100023.47;;;9.23;65.64
71559;BME280;59382;43.852;25.952;2023-12-14T05:23:34;100031.88;;;9.33;65.85
71559;BME280;59382;43.852;25.952;2023-12-14T05:25:59;100030.81;;;9.34;65.77
71559;BME280;59382;43.852;25.952;2023-12-14T05:28:25;100012.88;;;9.28;65.96
71559;BME280;59382;43.852;25.952;2023-12-14T05:30:50;100018.81;;;9.37;66.01
71559;BME280;59382;43.852;25.952;2023-12-14T05:33:16;100020.53;;;9.31;65.47
71559;BME280;59382;43.852;25.952;2023-12-14T05:35:41;100017.66;;;9.26;65.80
71559;BME280;59382;43.852;25.952;2023-12-14T05:38:07;100017.91;;;9.18;65.75
71559;BME280;59382;43.852;25.952;2023-12-14T05:40:32;100042.94;;;9.25;65.88
71559;BME280;59382;43.852;25.952;2023-12-14T05:42:58;100036.50;;;9.26;65.89
71559;BME280;59382;43.852;25.952;2023-12-14T05:45:24;100032.59;;;9.22;65.61
71559;BME280;59382;43.852;25.952;2023-12-14T05:47:49;100017.16;;;9.11;65.56
71559;BME280;59382;43.852;25.952;2023-12-14T05:50:15;100043.84;;;9.13;65.70
71559;BME280;59382;43.852;25.952;2023-12-14T05:52:40;100023.22;;;9.00;65.66
71559;BME280;59382;43.852;25.952;2023-12-14T05:55:09;100045.53;;;9.07;65.81
71559;BME280;59382;43.852;25.952;2023-12-14T05:57:38;100043.50;;;9.03;65.94
71559;BME280;59382;43.852;25.952;2023-12-14T06:00:07;100033.66;;;8.90;65.96
71559;BME280;59382;43.852;25.952;2023-12-14T06:02:33;100033.53;;;8.72;65.95
71559;BME280;59382;43.852;25.952;2023-12-14T06:04:58;100050.72;;;8.71;66.26
71559;BME280;59382;43.852;25.952;2023-12-14T06:07:24;100060.72;;;8.64;66.71
71559;BME280;59382;43.852;25.952;2023-12-14T06:09:50;100088.81;;;8.68;66.61
71559;BME280;59382;43.852;25.952;2023-12-14T06:12:16;100108.69;;;8.67;66.15
71559;BME280;59382;43.852;25.952;2023-12-14T06:14:41;100124.84;;;8.54;66.28
71559;BME280;59382;43.852;25.952;2023-12-14T06:17:09;100153.00;;;8.45;66.32
71559;BME280;59382;43.852;25.952;2023-12-14T06:19:34;100125.38;;;8.25;66.01
71559;BME280;59382;43.852;25.952;2023-12-14T06:22:00;100155.53;;;8.21;66.37
71559;BME280;59382;43.852;25.952;2023-12-14T06:24:26;100170.84;;;8.14;66.20
71559;BME280;59382;43.852;25.952;2023-12-14T06:26:52;100153.88;;;8.13;66.66
71559;BME280;59382;43.852;25.952;2023-12-14T06:29:18;100158.63;;;8.18;66.47
71559;BME280;59382;43.852;25.952;2023-12-14T06:31:45;100153.47;;;8.29;66.51
71559;BME280;59382;43.852;25.952;2023-12-14T06:34:10;100177.47;;;8.37;66.36
71559;BME280;59382;43.852;25.952;2023-12-14T06:36:36;100154.91;;;8.45;66.22
71559;BME280;59382;43.852;25.952;2023-12-14T06:39:06;100168.56;;;8.43;65.74
71559;BME280;59382;43.852;25.952;2023-12-14T06:41:34;100174.53;;;8.45;65.82
71559;BME280;59382;43.852;25.952;2023-12-14T06:44:00;100195.81;;;8.47;65.90
71559;BME280;59382;43.852;25.952;2023-12-14T06:46:26;100176.59;;;8.50;65.96
71559;BME280;59382;43.852;25.952;2023-12-14T06:48:51;100191.50;;;8.46;66.26
71559;BME280;59382;43.852;25.952;2023-12-14T06:51:17;100187.75;;;8.53;66.09
71559;BME280;59382;43.852;25.952;2023-12-14T06:53:43;100205.53;;;8.61;65.78
71559;BME280;59382;43.852;25.952;2023-12-14T06:56:09;100210.28;;;8.72;65.71
71559;BME280;59382;43.852;25.952;2023-12-14T06:58:43;100199.28;;;8.73;65.62
71559;BME280;59382;43.852;25.952;2023-12-14T07:01:17;100200.09;;;8.74;65.66
71559;BME280;59382;43.852;25.952;2023-12-14T07:03:43;100193.94;;;8.60;65.67
71559;BME280;59382;43.852;25.952;2023-12-14T07:06:13;100194.34;;;8.64;65.51
71559;BME280;59382;43.852;25.952;2023-12-14T07:08:39;100202.03;;;8.47;67.98
71559;BME280;59382;43.852;25.952;2023-12-14T07:11:06;100229.38;;;9.83;73.87
71559;BME280;59382;43.852;25.952;2023-12-14T07:13:32;100227.09;;;11.44;69.65
71559;BME280;59382;43.852;25.952;2023-12-14T07:15:58;100230.16;;;12.41;65.78
71559;BME280;59382;43.852;25.952;2023-12-14T07:18:24;100254.31;;;12.54;63.29
71559;BME280;59382;43.852;25.952;2023-12-14T07:20:49;100268.81;;;12.07;62.56
71559;BME280;59382;43.852;25.952;2023-12-14T07:23:15;100295.53;;;11.56;63.34
71559;BME280;59382;43.852;25.952;2023-12-14T07:25:40;100271.53;;;10.94;63.38
71559;BME280;59382;43.852;25.952;2023-12-14T07:28:06;100282.41;;;10.45;63.68
71559;BME280;59382;43.852;25.952;2023-12-14T07:30:31;100248.44;;;9.81;63.82
71559;BME280;59382;43.852;25.952;2023-12-14T07:32:57;100274.41;;;9.38;64.76
71559;BME280;59382;43.852;25.952;2023-12-14T07:35:23;100270.38;;;9.03;65.31
71559;BME280;59382;43.852;25.952;2023-12-14T07:37:48;100280.34;;;8.96;65.83
71559;BME280;59382;43.852;25.952;2023-12-14T07:40:14;100289.50;;;8.82;65.88
71559;BME280;59382;43.852;25.952;2023-12-14T07:42:41;100273.00;;;8.46;65.97
71559;BME280;59382;43.852;25.952;2023-12-14T07:45:08;100293.69;;;8.33;66.63
71559;BME280;59382;43.852;25.952;2023-12-14T07:47:34;100300.66;;;8.14;66.69
71559;BME280;59382;43.852;25.952;2023-12-14T07:50:00;100276.25;;;7.89;66.70
71559;BME280;59382;43.852;25.952;2023-12-14T07:52:25;100273.28;;;7.65;67.16
71559;BME280;59382;43.852;25.952;2023-12-14T07:54:51;100278.19;;;7.48;67.50
71559;BME280;59382;43.852;25.952;2023-12-14T07:57:16;100292.69;;;7.54;67.68
71559;BME280;59382;43.852;25.952;2023-12-14T07:59:42;100300.97;;;7.59;68.13
71559;BME280;59382;43.852;25.952;2023-12-14T08:02:08;100299.94;;;7.60;67.93
71559;BME280;59382;43.852;25.952;2023-12-14T08:04:33;100291.66;;;7.55;68.16
71559;BME280;59382;43.852;25.952;2023-12-14T08:06:59;100301.34;;;7.49;68.17
71559;BME280;59382;43.852;25.952;2023-12-14T08:09:24;100272.41;;;7.38;67.81
71559;BME280;59382;43.852;25.952;2023-12-14T08:11:51;100276.59;;;7.54;68.24
71559;BME280;59382;43.852;25.952;2023-12-14T08:14:17;100263.81;;;7.69;67.88
71559;BME280;59382;43.852;25.952;2023-12-14T08:16:43;100264.44;;;7.71;68.05
71559;BME280;59382;43.852;25.952;2023-12-14T08:19:11;100270.03;;;7.76;67.57
71559;BME280;59382;43.852;25.952;2023-12-14T08:21:37;100267.53;;;7.74;67.91
71559;BME280;59382;43.852;25.952;2023-12-14T08:24:04;100254.94;;;7.75;67.95
71559;BME280;59382;43.852;25.952;2023-12-14T08:26:30;100271.31;;;7.93;67.55
71559;BME280;59382;43.852;25.952;2023-12-14T08:28:55;100260.75;;;7.98;67.71
71559;BME280;59382;43.852;25.952;2023-12-14T08:31:21;100299.81;;;8.20;67.67
71559;BME280;59382;43.852;25.952;2023-12-14T08:33:46;100327.59;;;8.27;67.31
71559;BME280;59382;43.852;25.952;2023-12-14T08:36:16;100339.31;;;8.13;67.62
71559;BME280;59382;43.852;25.952;2023-12-14T08:38:42;100349.03;;;8.14;67.77
71559;BME280;59382;43.852;25.952;2023-12-14T08:41:12;100352.53;;;8.08;67.58
71559;BME280;59382;43.852;25.952;2023-12-14T08:43:37;100363.09;;;8.03;67.70
71559;BME280;59382;43.852;25.952;2023-12-14T08:46:03;100364.09;;;7.95;67.82
71559;BME280;59382;43.852;25.952;2023-12-14T08:48:29;100355.97;;;7.76;68.35
71559;BME280;59382;43.852;25.952;2023-12-14T08:50:54;100373.31;;;7.73;68.59
71559;BME280;59382;43.852;25.952;2023-12-14T08:53:20;100381.16;;;7.68;68.43
71559;BME280;59382;43.852;25.952;2023-12-14T08:55:46;100396.81;;;7.65;68.93
71559;BME280;59382;43.852;25.952;2023-12-14T08:58:11;100388.75;;;7.58;68.90
71559;BME280;59382;43.852;25.952;2023-12-14T09:00:37;100385.19;;;7.45;69.16
71559;BME280;59382;43.852;25.952;2023-12-14T09:03:06;100372.69;;;7.24;69.30
71559;BME280;59382;43.852;25.952;2023-12-14T09:05:32;100369.09;;;7.11;69.12
71559;BME280;59382;43.852;25.952;2023-12-14T09:07:58;100404.91;;;7.31;69.96
71559;BME280;59382;43.852;25.952;2023-12-14T09:10:24;100394.56;;;7.28;70.08
71559;BME280;59382;43.852;25.952;2023-12-14T09:12:50;100402.00;;;7.26;70.93
71559;BME280;59382;43.852;25.952;2023-12-14T09:15:16;100383.75;;;7.15;70.79
71559;BME280;59382;43.852;25.952;2023-12-14T09:17:41;100384.63;;;7.22;70.61
71559;BME280;59382;43.852;25.952;2023-12-14T09:20:09;100388.34;;;7.21;70.69
71559;BME280;59382;43.852;25.952;2023-12-14T09:22:34;100389.00;;;7.23;71.30
71559;BME280;59382;43.852;25.952;2023-12-14T09:25:00;100405.31;;;7.28;71.16
71559;BME280;59382;43.852;25.952;2023-12-14T09:27:26;100368.50;;;7.15;71.39
71559;BME280;59382;43.852;25.952;2023-12-14T09:29:54;100384.88;;;7.27;71.48
71559;BME280;59382;43.852;25.952;2023-12-14T09:32:19;100357.19;;;7.20;71.78
71559;BME280;59382;43.852;25.952;2023-12-14T09:34:45;100363.25;;;7.35;71.52
71559;BME280;59382;43.852;25.952;2023-12-14T09:37:10;100371.97;;;7.43;71.62
71559;BME280;59382;43.852;25.952;2023-12-14T09:39:36;100364.50;;;7.39;71.57
71559;BME280;59382;43.852;25.952;2023-12-14T09:42:03;100387.22;;;7.43;72.28
71559;BME280;59382;43.852;25.952;2023-12-14T09:44:31;100383.09;;;7.47;71.81
71559;BME280;59382;43.852;25.952;2023-12-14T09:47:01;100389.69;;;7.38;72.13
71559;BME280;59382;43.852;25.952;2023-12-14T09:49:29;100409.88;;;7.34;72.60
71559;BME280;59382;43.852;25.952;2023-12-14T09:51:59;100399.53;;;7.31;72.65
71559;BME280;59382;43.852;25.952;2023-12-14T09:54:26;100394.97;;;7.25;72.75
71559;BME280;59382;43.852;25.952;2023-12-14T09:56:52;100402.03;;;7.32;73.00
71559;BME280;59382;43.852;25.952;2023-12-14T09:59:18;100408.25;;;7.33;73.29
71559;BME280;59382;43.852;25.952;2023-12-14T10:01:44;100418.72;;;7.28;73.68
71559;BME280;59382;43.852;25.952;2023-12-14T10:04:15;100414.31;;;7.14;74.09
71559;BME280;59382;43.852;25.952;2023-12-14T10:06:43;100431.53;;;7.26;73.52
71559;BME280;59382;43.852;25.952;2023-12-14T10:09:15;100410.66;;;7.21;73.73
71559;BME280;59382;43.852;25.952;2023-12-14T10:11:44;100413.13;;;7.23;74.01
71559;BME280;59382;43.852;25.952;2023-12-14T10:14:25;100399.94;;;7.28;74.29
71559;BME280;59382;43.852;25.952;2023-12-14T10:16:51;100421.13;;;7.44;73.64
71559;BME280;59382;43.852;25.952;2023-12-14T10:19:18;100433.69;;;7.43;74.24
71559;BME280;59382;43.852;25.952;2023-12-14T10:21:45;100402.22;;;7.31;73.80
71559;BME280;59382;43.852;25.952;2023-12-14T10:24:12;100401.44;;;7.37;73.84
71559;BME280;59382;43.852;25.952;2023-12-14T10:26:38;100394.28;;;7.44;73.98
71559;BME280;59382;43.852;25.952;2023-12-14T10:29:04;100405.47;;;7.54;73.84
71559;BME280;59382;43.852;25.952;2023-12-14T10:31:33;100404.66;;;7.60;73.96
71559;BME280;59382;43.852;25.952;2023-12-14T10:34:06;100396.38;;;7.55;74.15
71559;BME280;59382;43.852;25.952;2023-12-14T10:36:32;100400.94;;;7.61;73.80
71559;BME280;59382;43.852;25.952;2023-12-14T10:38:59;100407.97;;;7.62;73.47
71559;BME280;59382;43.852;25.952;2023-12-14T10:41:31;100387.69;;;7.53;73.75
71559;BME280;59382;43.852;25.952;2023-12-14T10:43:58;100403.44;;;7.62;73.74
71559;BME280;59382;43.852;25.952;2023-12-14T10:46:26;100411.28;;;7.64;73.62
71559;BME280;59382;43.852;25.952;2023-12-14T10:48:53;100426.84;;;7.75;73.61
71559;BME280;59382;43.852;25.952;2023-12-14T10:51:21;100394.38;;;7.70;73.55
71559;BME280;59382;43.852;25.952;2023-12-14T10:53:48;100422.97;;;7.84;73.31
71559;BME280;59382;43.852;25.952;2023-12-14T10:56:15;100407.25;;;7.81;73.33
71559;BME280;59382;43.852;25.952;2023-12-14T10:58:54;100411.41;;;7.90;73.22
71559;BME280;59382;43.852;25.952;2023-12-14T11:01:24;100400.66;;;7.96;72.91
71559;BME280;59382;43.852;25.952;2023-12-14T11:03:53;100406.47;;;8.00;72.77
71559;BME280;59382;43.852;25.952;2023-12-14T11:08:51;100445.78;;;8.14;73.13
71559;BME280;59382;43.852;25.952;2023-12-14T11:11:17;100451.59;;;8.18;72.93
71559;BME280;59382;43.852;25.952;2023-12-14T11:13:52;100443.31;;;8.19;73.10
71559;BME280;59382;43.852;25.952;2023-12-14T11:16:22;100441.72;;;8.31;72.75
71559;BME280;59382;43.852;25.952;2023-12-14T11:18:48;100419.81;;;8.34;72.58
71559;BME280;59382;43.852;25.952;2023-12-14T11:21:33;100435.97;;;8.47;72.66
71559;BME280;59382;43.852;25.952;2023-12-14T11:24:00;100434.09;;;8.54;72.27
71559;BME280;59382;43.852;25.952;2023-12-14T11:26:26;100411.16;;;8.52;72.29
71559;BME280;59382;43.852;25.952;2023-12-14T11:28:54;100427.31;;;8.71;71.93
71559;BME280;59382;43.852;25.952;2023-12-14T11:31:21;100437.88;;;8.79;72.09
71559;BME280;59382;43.852;25.952;2023-12-14T11:33:48;100431.25;;;8.82;71.83
71559;BME280;59382;43.852;25.952;2023-12-14T11:36:15;100409.13;;;8.73;71.93
71559;BME280;59382;43.852;25.952;2023-12-14T11:38:42;100443.03;;;8.87;71.73
71559;BME280;59382;43.852;25.952;2023-12-14T11:41:08;100456.69;;;8.99;71.63
71559;BME280;59382;43.852;25.952;2023-12-14T11:43:43;100462.09;;;9.05;71.29
71559;BME280;59382;43.852;25.952;2023-12-14T11:46:10;100448.44;;;9.07;71.46
71559;BME280;59382;43.852;25.952;2023-12-14T11:48:35;100422.34;;;8.94;71.38
71559;BME280;59382;43.852;25.952;2023-12-14T11:51:01;100445.09;;;9.11;71.38
71559;BME280;59382;43.852;25.952;2023-12-14T11:53:26;100448.84;;;9.10;71.24
71559;BME280;59382;43.852;25.952;2023-12-14T11:55:52;100452.97;;;9.13;70.95
71559;BME280;59382;43.852;25.952;2023-12-14T11:58:18;100459.81;;;9.22;71.07
71559;BME280;59382;43.852;25.952;2023-12-14T12:00:43;100452.75;;;9.27;71.24
71559;BME280;59382;43.852;25.952;2023-12-14T12:03:17;100429.34;;;9.21;71.28
71559;BME280;59382;43.852;25.952;2023-12-14T12:05:51;100450.44;;;9.37;71.17
71559;BME280;59382;43.852;25.952;2023-12-14T12:08:21;100453.75;;;9.39;70.79
71559;BME280;59382;43.852;25.952;2023-12-14T12:10:47;100444.84;;;9.39;70.80
71559;BME280;59382;43.852;25.952;2023-12-14T12:13:15;100459.38;;;9.44;70.73
71559;BME280;59382;43.852;25.952;2023-12-14T12:15:41;100463.91;;;9.50;70.75
71559;BME280;59382;43.852;25.952;2023-12-14T12:18:08;100458.31;;;9.52;70.86
71559;BME280;59382;43.852;25.952;2023-12-14T12:20:34;100457.47;;;9.51;70.93
71559;BME280;59382;43.852;25.952;2023-12-14T12:23:00;100471.56;;;9.53;71.17
71559;BME280;59382;43.852;25.952;2023-12-14T12:25:26;100472.78;;;9.57;70.95
71559;BME280;59382;43.852;25.952;2023-12-14T12:27:56;100483.56;;;9.64;70.76
71559;BME280;59382;43.852;25.952;2023-12-14T12:30:22;100485.00;;;9.66;70.90
71559;BME280;59382;43.852;25.952;2023-12-14T12:32:49;100471.53;;;9.60;70.89
71559;BME280;59382;43.852;25.952;2023-12-14T12:35:19;100470.53;;;9.61;71.04
71559;BME280;59382;43.852;25.952;2023-12-14T12:37:45;100496.41;;;9.68;70.88
71559;BME280;59382;43.852;25.952;2023-12-14T12:40:11;100495.78;;;9.66;70.81
71559;BME280;59382;43.852;25.952;2023-12-14T12:42:36;100477.13;;;9.58;71.34
71559;BME280;59382;43.852;25.952;2023-12-14T12:45:03;100487.28;;;9.69;71.02
71559;BME280;59382;43.852;25.952;2023-12-14T12:47:29;100496.41;;;9.68;70.91
71559;BME280;59382;43.852;25.952;2023-12-14T12:49:58;100483.34;;;9.65;71.16
71559;BME280;59382;43.852;25.952;2023-12-14T12:52:23;100473.59;;;9.64;71.15